sensor_id;sensor_type;location;lat;lon;timestamp;pressure;altitude;pressure_sealevel;temperature;humidity
498;BME280;39559;48.630;9.162;2022-07-23T00:02:17;97510.66;;;20.34;100.00
498;BME280;39559;48.630;9.162;2022-07-23T00:04:42;97507.63;;;20.06;100.00
498;BME280;39559;48.630;9.162;2022-07-23T00:07:08;97531.28;;;19.85;100.00
498;BME280;39559;48.630;9.162;2022-07-23T00:09:33;97524.91;;;19.88;100.00
498;BME280;39559;48.630;9.162;2022-07-23T00:11:59;97515.00;;;19.80;100.00
498;BME280;39559;48.630;9.162;2022-07-23T00:16:29;97466.84;;;19.78;100.00
498;BME280;39559;48.630;9.162;2022-07-23T00:18:54;97468.50;;;19.90;100.00
498;BME280;39559;48.630;9.162;2022-07-23T00:21:20;97472.22;;;20.20;98.08
498;BME280;39559;48.630;9.162;2022-07-23T00:23:46;97481.19;;;20.29;96.17
498;BME280;39559;48.630;9.162;2022-07-23T00:26:11;97494.84;;;20.23;100.00
498;BME280;39559;48.630;9.162;2022-07-23T00:28:37;97495.25;;;20.18;100.00
498;BME280;39559;48.630;9.162;2022-07-23T00:31:02;97491.03;;;20.27;100.00
498;BME280;39559;48.630;9.162;2022-07-23T00:33:28;97480.66;;;20.14;100.00
498;BME280;39559;48.630;9.162;2022-07-23T00:35:54;97490.28;;;19.92;100.00
498;BME280;39559;48.630;9.162;2022-07-23T00:40:23;97452.88;;;19.99;100.00
498;BME280;39559;48.630;9.162;2022-07-23T00:42:50;97472.03;;;20.01;100.00
498;BME280;39559;48.630;9.162;2022-07-23T00:45:15;97463.22;;;20.23;93.92
498;BME280;39559;48.630;9.162;2022-07-23T00:47:41;97452.34;;;20.37;89.96
498;BME280;39559;48.630;9.162;2022-07-23T00:50:08;97431.59;;;20.44;87.77
498;BME280;39559;48.630;9.162;2022-07-23T00:52:35;97427.25;;;20.43;87.00
498;BME280;39559;48.630;9.162;2022-07-23T00:55:02;97432.13;;;20.38;89.00
498;BME280;39559;48.630;9.162;2022-07-23T00:57:28;97443.44;;;20.28;89.27
498;BME280;39559;48.630;9.162;2022-07-23T00:59:53;97443.88;;;20.33;87.23
498;BME280;39559;48.630;9.162;2022-07-23T01:04:17;97445.03;;;20.41;88.43
498;BME280;39559;48.630;9.162;2022-07-23T01:06:44;97446.97;;;20.39;90.16
498;BME280;39559;48.630;9.162;2022-07-23T01:09:10;97451.16;;;20.41;89.52
498;BME280;39559;48.630;9.162;2022-07-23T01:11:37;97461.56;;;20.43;89.88
498;BME280;39559;48.630;9.162;2022-07-23T01:14:10;97452.75;;;20.32;90.38
498;BME280;39559;48.630;9.162;2022-07-23T01:16:36;97443.09;;;20.22;92.21
498;BME280;39559;48.630;9.162;2022-07-23T01:19:02;97435.69;;;20.37;89.46
498;BME280;39559;48.630;9.162;2022-07-23T01:21:30;97424.56;;;20.33;90.76
498;BME280;39559;48.630;9.162;2022-07-23T01:23:56;97418.53;;;20.21;89.83
498;BME280;39559;48.630;9.162;2022-07-23T01:28:11;97403.41;;;20.23;89.25
498;BME280;39559;48.630;9.162;2022-07-23T01:30:37;97394.66;;;20.23;89.73
498;BME280;39559;48.630;9.162;2022-07-23T01:33:03;97386.91;;;20.21;89.33
498;BME280;39559;48.630;9.162;2022-07-23T01:35:28;97353.91;;;20.27;89.44
498;BME280;39559;48.630;9.162;2022-07-23T01:37:54;97342.00;;;20.32;87.24
498;BME280;39559;48.630;9.162;2022-07-23T01:40:19;97364.69;;;20.24;92.57
498;BME280;39559;48.630;9.162;2022-07-23T01:42:45;97328.34;;;20.27;90.17
498;BME280;39559;48.630;9.162;2022-07-23T01:45:10;97391.63;;;20.27;92.25
498;BME280;39559;48.630;9.162;2022-07-23T01:47:36;97416.16;;;20.18;92.10
498;BME280;39559;48.630;9.162;2022-07-23T01:52:06;97416.56;;;20.02;93.50
498;BME280;39559;48.630;9.162;2022-07-23T01:54:36;97398.34;;;19.78;95.67
498;BME280;39559;48.630;9.162;2022-07-23T01:57:02;97402.50;;;19.81;96.17
498;BME280;39559;48.630;9.162;2022-07-23T01:59:28;97403.81;;;19.86;95.13
498;BME280;39559;48.630;9.162;2022-07-23T02:01:53;97387.88;;;19.88;91.88
498;BME280;39559;48.630;9.162;2022-07-23T02:04:21;97407.47;;;19.74;94.95
498;BME280;39559;48.630;9.162;2022-07-23T02:06:47;97405.91;;;19.60;95.82
498;BME280;39559;48.630;9.162;2022-07-23T02:09:13;97405.91;;;19.60;97.75
498;BME280;39559;48.630;9.162;2022-07-23T02:11:38;97398.94;;;19.59;96.21
498;BME280;39559;48.630;9.162;2022-07-23T02:16:00;97413.44;;;19.76;90.86
498;BME280;39559;48.630;9.162;2022-07-23T02:18:26;97425.16;;;19.83;92.26
498;BME280;39559;48.630;9.162;2022-07-23T02:20:51;97440.00;;;19.84;96.04
498;BME280;39559;48.630;9.162;2022-07-23T02:23:17;97449.34;;;19.77;96.13
498;BME280;39559;48.630;9.162;2022-07-23T02:25:43;97437.97;;;19.77;95.72
498;BME280;39559;48.630;9.162;2022-07-23T02:28:08;97450.31;;;19.65;98.57
498;BME280;39559;48.630;9.162;2022-07-23T02:30:35;97451.78;;;19.58;98.92
498;BME280;39559;48.630;9.162;2022-07-23T02:33:00;97455.47;;;19.55;97.58
498;BME280;39559;48.630;9.162;2022-07-23T02:35:26;97475.69;;;19.66;97.60
498;BME280;39559;48.630;9.162;2022-07-23T02:39:55;97479.78;;;19.59;97.79
498;BME280;39559;48.630;9.162;2022-07-23T02:42:20;97477.16;;;19.47;100.00
498;BME280;39559;48.630;9.162;2022-07-23T02:44:46;97482.19;;;19.39;100.00
498;BME280;39559;48.630;9.162;2022-07-23T02:47:11;97481.59;;;19.47;100.00
498;BME280;39559;48.630;9.162;2022-07-23T02:49:37;97489.72;;;19.10;100.00
498;BME280;39559;48.630;9.162;2022-07-23T02:52:03;97488.88;;;18.98;100.00
498;BME280;39559;48.630;9.162;2022-07-23T02:54:29;97497.97;;;18.94;100.00
498;BME280;39559;48.630;9.162;2022-07-23T02:56:54;97497.00;;;18.84;100.00
498;BME280;39559;48.630;9.162;2022-07-23T02:59:20;97498.59;;;18.73;100.00
498;BME280;39559;48.630;9.162;2022-07-23T03:03:50;97513.31;;;18.65;100.00
498;BME280;39559;48.630;9.162;2022-07-23T03:06:16;97516.50;;;18.57;100.00
498;BME280;39559;48.630;9.162;2022-07-23T03:08:43;97520.63;;;18.72;100.00
498;BME280;39559;48.630;9.162;2022-07-23T03:11:08;97517.28;;;18.70;100.00
498;BME280;39559;48.630;9.162;2022-07-23T03:13:39;97507.19;;;18.64;100.00
498;BME280;39559;48.630;9.162;2022-07-23T03:16:05;97507.38;;;18.14;100.00
498;BME280;39559;48.630;9.162;2022-07-23T03:18:32;97515.53;;;18.22;100.00
498;BME280;39559;48.630;9.162;2022-07-23T03:20:58;97513.97;;;18.20;100.00
498;BME280;39559;48.630;9.162;2022-07-23T03:23:23;97514.19;;;18.17;100.00
498;BME280;39559;48.630;9.162;2022-07-23T03:27:45;97503.78;;;18.15;100.00
498;BME280;39559;48.630;9.162;2022-07-23T03:30:11;97509.44;;;18.22;100.00
498;BME280;39559;48.630;9.162;2022-07-23T03:32:37;97502.63;;;18.19;100.00
498;BME280;39559;48.630;9.162;2022-07-23T03:35:03;97495.16;;;18.13;100.00
498;BME280;39559;48.630;9.162;2022-07-23T03:37:28;97495.16;;;18.13;100.00
498;BME280;39559;48.630;9.162;2022-07-23T03:39:54;97492.16;;;18.07;100.00
498;BME280;39559;48.630;9.162;2022-07-23T03:42:19;97496.81;;;18.03;100.00
498;BME280;39559;48.630;9.162;2022-07-23T03:44:45;97495.16;;;17.89;100.00
498;BME280;39559;48.630;9.162;2022-07-23T03:47:13;97504.59;;;17.92;100.00
498;BME280;39559;48.630;9.162;2022-07-23T03:51:39;97497.75;;;17.65;100.00
498;BME280;39559;48.630;9.162;2022-07-23T03:54:04;97500.91;;;17.57;100.00
498;BME280;39559;48.630;9.162;2022-07-23T03:56:30;97509.41;;;17.61;100.00
498;BME280;39559;48.630;9.162;2022-07-23T03:58:56;97514.16;;;17.56;100.00
498;BME280;39559;48.630;9.162;2022-07-23T04:01:21;97520.69;;;17.50;100.00
498;BME280;39559;48.630;9.162;2022-07-23T04:03:47;97533.38;;;17.56;100.00
498;BME280;39559;48.630;9.162;2022-07-23T04:06:12;97538.09;;;17.51;100.00
498;BME280;39559;48.630;9.162;2022-07-23T04:08:38;97531.56;;;17.57;100.00
498;BME280;39559;48.630;9.162;2022-07-23T04:11:03;97534.28;;;17.55;100.00
498;BME280;39559;48.630;9.162;2022-07-23T04:15:34;97532.19;;;17.60;100.00
498;BME280;39559;48.630;9.162;2022-07-23T04:17:59;97520.22;;;17.56;100.00
498;BME280;39559;48.630;9.162;2022-07-23T04:20:25;97530.00;;;17.54;100.00
498;BME280;39559;48.630;9.162;2022-07-23T04:22:50;97534.94;;;17.46;100.00
498;BME280;39559;48.630;9.162;2022-07-23T04:25:16;97536.13;;;17.42;100.00
498;BME280;39559;48.630;9.162;2022-07-23T04:27:42;97536.84;;;17.44;100.00
498;BME280;39559;48.630;9.162;2022-07-23T04:30:08;97539.34;;;17.58;100.00
498;BME280;39559;48.630;9.162;2022-07-23T04:32:34;97539.56;;;17.55;100.00
498;BME280;39559;48.630;9.162;2022-07-23T04:34:59;97543.03;;;17.56;100.00
498;BME280;39559;48.630;9.162;2022-07-23T04:39:29;97542.41;;;17.52;100.00
498;BME280;39559;48.630;9.162;2022-07-23T04:41:54;97532.63;;;17.54;100.00
498;BME280;39559;48.630;9.162;2022-07-23T04:44:19;97526.41;;;17.55;100.00
498;BME280;39559;48.630;9.162;2022-07-23T04:46:45;97530.31;;;17.50;100.00
498;BME280;39559;48.630;9.162;2022-07-23T04:49:11;97544.06;;;17.53;100.00
498;BME280;39559;48.630;9.162;2022-07-23T04:51:36;97541.31;;;17.68;100.00
498;BME280;39559;48.630;9.162;2022-07-23T04:54:02;97533.66;;;17.77;100.00
498;BME280;39559;48.630;9.162;2022-07-23T04:56:27;97533.50;;;17.79;100.00
498;BME280;39559;48.630;9.162;2022-07-23T04:58:53;97537.31;;;17.75;100.00
498;BME280;39559;48.630;9.162;2022-07-23T05:03:24;97532.78;;;17.77;100.00
498;BME280;39559;48.630;9.162;2022-07-23T05:05:49;97533.66;;;17.77;100.00
498;BME280;39559;48.630;9.162;2022-07-23T05:08:15;97538.91;;;17.77;100.00
498;BME280;39559;48.630;9.162;2022-07-23T05:10:41;97546.66;;;17.79;100.00
498;BME280;39559;48.630;9.162;2022-07-23T05:13:07;97541.19;;;17.95;100.00
498;BME280;39559;48.630;9.162;2022-07-23T05:15:32;97537.56;;;18.09;100.00
498;BME280;39559;48.630;9.162;2022-07-23T05:17:58;97540.97;;;17.98;100.00
498;BME280;39559;48.630;9.162;2022-07-23T05:20:23;97538.22;;;17.99;100.00
498;BME280;39559;48.630;9.162;2022-07-23T05:22:49;97531.25;;;18.11;100.00
498;BME280;39559;48.630;9.162;2022-07-23T05:27:19;97538.19;;;18.36;100.00
498;BME280;39559;48.630;9.162;2022-07-23T05:29:45;97534.22;;;18.31;100.00
498;BME280;39559;48.630;9.162;2022-07-23T05:32:11;97527.56;;;18.38;100.00
498;BME280;39559;48.630;9.162;2022-07-23T05:34:36;97536.06;;;18.41;100.00
498;BME280;39559;48.630;9.162;2022-07-23T05:37:02;97533.06;;;18.46;100.00
498;BME280;39559;48.630;9.162;2022-07-23T05:39:27;97534.03;;;18.45;100.00
498;BME280;39559;48.630;9.162;2022-07-23T05:41:53;97536.63;;;18.34;100.00
498;BME280;39559;48.630;9.162;2022-07-23T05:44:18;97539.06;;;18.24;100.00
498;BME280;39559;48.630;9.162;2022-07-23T05:46:44;97536.22;;;18.27;100.00
498;BME280;39559;48.630;9.162;2022-07-23T05:51:24;97544.63;;;18.32;100.00
498;BME280;39559;48.630;9.162;2022-07-23T05:53:51;97555.41;;;18.40;100.00
498;BME280;39559;48.630;9.162;2022-07-23T05:56:17;97555.13;;;18.56;100.00
498;BME280;39559;48.630;9.162;2022-07-23T05:58:43;97556.59;;;18.72;100.00
498;BME280;39559;48.630;9.162;2022-07-23T06:01:09;97557.69;;;18.80;100.00
498;BME280;39559;48.630;9.162;2022-07-23T06:03:35;97555.97;;;18.81;100.00
498;BME280;39559;48.630;9.162;2022-07-23T06:06:00;97537.84;;;18.76;100.00
498;BME280;39559;48.630;9.162;2022-07-23T06:08:26;97541.19;;;18.78;100.00
498;BME280;39559;48.630;9.162;2022-07-23T06:10:51;97546.31;;;19.04;100.00
498;BME280;39559;48.630;9.162;2022-07-23T06:15:10;97536.25;;;18.87;100.00
498;BME280;39559;48.630;9.162;2022-07-23T06:17:37;97534.97;;;19.15;100.00
498;BME280;39559;48.630;9.162;2022-07-23T06:20:06;97522.78;;;19.25;100.00
498;BME280;39559;48.630;9.162;2022-07-23T06:22:31;97509.84;;;19.22;100.00
498;BME280;39559;48.630;9.162;2022-07-23T06:24:57;97504.69;;;19.21;100.00
498;BME280;39559;48.630;9.162;2022-07-23T06:27:23;97501.94;;;19.33;100.00
498;BME280;39559;48.630;9.162;2022-07-23T06:29:48;97519.53;;;19.44;100.00
498;BME280;39559;48.630;9.162;2022-07-23T06:32:14;97533.53;;;19.67;100.00
498;BME280;39559;48.630;9.162;2022-07-23T06:34:39;97529.50;;;19.74;100.00
498;BME280;39559;48.630;9.162;2022-07-23T06:39:04;97536.28;;;20.00;100.00
498;BME280;39559;48.630;9.162;2022-07-23T06:41:30;97535.75;;;20.17;100.00
498;BME280;39559;48.630;9.162;2022-07-23T06:43:55;97545.53;;;20.38;100.00
498;BME280;39559;48.630;9.162;2022-07-23T06:46:21;97545.56;;;20.59;100.00
498;BME280;39559;48.630;9.162;2022-07-23T06:48:46;97542.53;;;20.75;100.00
498;BME280;39559;48.630;9.162;2022-07-23T06:51:12;97544.97;;;20.87;100.00
498;BME280;39559;48.630;9.162;2022-07-23T06:53:38;97545.88;;;20.98;100.00
498;BME280;39559;48.630;9.162;2022-07-23T06:56:03;97541.28;;;21.21;100.00
498;BME280;39559;48.630;9.162;2022-07-23T06:58:29;97544.50;;;21.24;100.00
498;BME280;39559;48.630;9.162;2022-07-23T07:03:00;97557.97;;;21.73;100.00
498;BME280;39559;48.630;9.162;2022-07-23T07:05:26;97570.03;;;21.66;100.00
498;BME280;39559;48.630;9.162;2022-07-23T07:07:54;97577.84;;;21.77;100.00
498;BME280;39559;48.630;9.162;2022-07-23T07:10:20;97584.84;;;21.47;100.00
498;BME280;39559;48.630;9.162;2022-07-23T07:12:45;97592.88;;;21.46;100.00
498;BME280;39559;48.630;9.162;2022-07-23T07:15:11;97592.78;;;21.57;97.75
498;BME280;39559;48.630;9.162;2022-07-23T07:17:37;97593.34;;;21.51;95.99
498;BME280;39559;48.630;9.162;2022-07-23T07:20:03;97590.22;;;21.67;99.86
498;BME280;39559;48.630;9.162;2022-07-23T07:22:29;97580.72;;;21.64;100.00
498;BME280;39559;48.630;9.162;2022-07-23T07:26:54;97582.00;;;21.39;100.00
498;BME280;39559;48.630;9.162;2022-07-23T07:29:20;97577.88;;;21.46;100.00
498;BME280;39559;48.630;9.162;2022-07-23T07:31:45;97586.78;;;21.45;97.70
498;BME280;39559;48.630;9.162;2022-07-23T07:34:11;97590.66;;;21.72;97.79
498;BME280;39559;48.630;9.162;2022-07-23T07:36:36;97591.38;;;21.84;98.72
498;BME280;39559;48.630;9.162;2022-07-23T07:39:04;97587.38;;;21.90;100.00
498;BME280;39559;48.630;9.162;2022-07-23T07:41:30;97592.09;;;21.86;95.85
498;BME280;39559;48.630;9.162;2022-07-23T07:43:56;97595.75;;;21.95;89.45
498;BME280;39559;48.630;9.162;2022-07-23T07:46:21;97598.25;;;21.87;86.64
498;BME280;39559;48.630;9.162;2022-07-23T07:50:51;97604.69;;;22.03;95.20
498;BME280;39559;48.630;9.162;2022-07-23T07:53:16;97608.28;;;22.02;92.92
498;BME280;39559;48.630;9.162;2022-07-23T07:55:42;97602.88;;;22.14;89.94
498;BME280;39559;48.630;9.162;2022-07-23T07:58:07;97605.34;;;22.27;94.92
498;BME280;39559;48.630;9.162;2022-07-23T08:00:33;97619.69;;;22.34;90.96
498;BME280;39559;48.630;9.162;2022-07-23T08:02:59;97620.97;;;22.39;88.45
498;BME280;39559;48.630;9.162;2022-07-23T08:05:26;97626.25;;;22.59;88.73
498;BME280;39559;48.630;9.162;2022-07-23T08:07:53;97631.84;;;22.66;88.32
498;BME280;39559;48.630;9.162;2022-07-23T08:10:19;97632.00;;;22.64;88.02
498;BME280;39559;48.630;9.162;2022-07-23T08:14:45;97634.09;;;22.80;92.36
498;BME280;39559;48.630;9.162;2022-07-23T08:17:10;97634.53;;;23.05;87.26
498;BME280;39559;48.630;9.162;2022-07-23T08:19:36;97628.13;;;23.07;82.53
498;BME280;39559;48.630;9.162;2022-07-23T08:22:01;97618.50;;;23.06;84.96
498;BME280;39559;48.630;9.162;2022-07-23T08:24:27;97617.28;;;23.10;84.97
498;BME280;39559;48.630;9.162;2022-07-23T08:26:52;97620.16;;;22.97;83.93
498;BME280;39559;48.630;9.162;2022-07-23T08:29:18;97620.75;;;23.11;85.21
498;BME280;39559;48.630;9.162;2022-07-23T08:31:43;97621.28;;;23.05;85.54
498;BME280;39559;48.630;9.162;2022-07-23T08:34:10;97627.31;;;23.07;81.92
498;BME280;39559;48.630;9.162;2022-07-23T08:38:40;97626.84;;;23.31;83.51
498;BME280;39559;48.630;9.162;2022-07-23T08:41:07;97629.75;;;23.37;79.72
498;BME280;39559;48.630;9.162;2022-07-23T08:43:33;97638.16;;;23.23;78.99
498;BME280;39559;48.630;9.162;2022-07-23T08:46:01;97625.59;;;23.35;80.95
498;BME280;39559;48.630;9.162;2022-07-23T08:48:29;97622.63;;;23.48;76.52
498;BME280;39559;48.630;9.162;2022-07-23T08:50:57;97630.72;;;23.46;76.03
498;BME280;39559;48.630;9.162;2022-07-23T08:53:24;97628.66;;;23.77;74.71
498;BME280;39559;48.630;9.162;2022-07-23T08:55:56;97627.97;;;23.75;70.24
498;BME280;39559;48.630;9.162;2022-07-23T08:58:23;97626.78;;;23.60;72.69
498;BME280;39559;48.630;9.162;2022-07-23T09:02:42;97620.97;;;23.47;71.13
498;BME280;39559;48.630;9.162;2022-07-23T09:05:09;97629.31;;;23.52;73.68
498;BME280;39559;48.630;9.162;2022-07-23T09:07:37;97617.06;;;23.51;74.55
498;BME280;39559;48.630;9.162;2022-07-23T09:10:10;97614.97;;;23.92;72.18
498;BME280;39559;48.630;9.162;2022-07-23T09:12:37;97612.63;;;23.79;74.86
498;BME280;39559;48.630;9.162;2022-07-23T09:15:05;97620.34;;;23.72;75.41
498;BME280;39559;48.630;9.162;2022-07-23T09:17:37;97627.41;;;23.91;73.61
498;BME280;39559;48.630;9.162;2022-07-23T09:20:08;97621.47;;;24.07;75.46
498;BME280;39559;48.630;9.162;2022-07-23T09:22:35;97625.22;;;23.67;75.69
498;BME280;39559;48.630;9.162;2022-07-23T09:26:36;97615.56;;;24.13;74.98
498;BME280;39559;48.630;9.162;2022-07-23T09:29:16;97616.78;;;24.19;72.87
498;BME280;39559;48.630;9.162;2022-07-23T09:31:57;97603.50;;;24.29;70.29
498;BME280;39559;48.630;9.162;2022-07-23T09:36:53;97608.59;;;24.40;72.91
498;BME280;39559;48.630;9.162;2022-07-23T09:39:28;97617.34;;;23.95;72.42
498;BME280;39559;48.630;9.162;2022-07-23T09:41:55;97611.34;;;23.93;73.02
498;BME280;39559;48.630;9.162;2022-07-23T09:44:21;97604.72;;;24.07;72.91
498;BME280;39559;48.630;9.162;2022-07-23T09:46:49;97601.13;;;24.26;73.10
498;BME280;39559;48.630;9.162;2022-07-23T09:50:23;97605.75;;;24.24;73.98
498;BME280;39559;48.630;9.162;2022-07-23T09:52:49;97605.22;;;24.66;71.11
498;BME280;39559;48.630;9.162;2022-07-23T09:55:18;97601.94;;;24.72;74.82
498;BME280;39559;48.630;9.162;2022-07-23T09:57:45;97598.22;;;25.01;73.44
498;BME280;39559;48.630;9.162;2022-07-23T10:00:12;97596.34;;;24.57;78.20
498;BME280;39559;48.630;9.162;2022-07-23T10:02:38;97598.22;;;24.65;78.29
498;BME280;39559;48.630;9.162;2022-07-23T10:05:05;97601.66;;;24.93;74.91
498;BME280;39559;48.630;9.162;2022-07-23T10:07:34;97604.69;;;24.98;77.74
498;BME280;39559;48.630;9.162;2022-07-23T10:10:02;97600.19;;;24.81;70.93
498;BME280;39559;48.630;9.162;2022-07-23T10:14:18;97603.09;;;24.87;73.42
498;BME280;39559;48.630;9.162;2022-07-23T10:16:44;97610.81;;;24.99;70.07
498;BME280;39559;48.630;9.162;2022-07-23T10:19:10;97607.38;;;25.06;63.19
498;BME280;39559;48.630;9.162;2022-07-23T10:21:48;97605.06;;;25.03;67.31
498;BME280;39559;48.630;9.162;2022-07-23T10:24:36;97598.44;;;25.07;66.95
498;BME280;39559;48.630;9.162;2022-07-23T10:30:03;97602.84;;;24.99;68.49
498;BME280;39559;48.630;9.162;2022-07-23T10:38:21;97596.97;;;25.57;68.37
498;BME280;39559;48.630;9.162;2022-07-23T10:41:09;97600.69;;;25.38;67.75
498;BME280;39559;48.630;9.162;2022-07-23T10:43:35;97602.66;;;25.62;61.78
498;BME280;39559;48.630;9.162;2022-07-23T10:46:23;97607.75;;;25.82;66.25
498;BME280;39559;48.630;9.162;2022-07-23T10:49:21;97612.53;;;25.96;65.30
498;BME280;39559;48.630;9.162;2022-07-23T10:52:23;97604.19;;;25.99;62.17
498;BME280;39559;48.630;9.162;2022-07-23T10:57:50;97600.22;;;25.69;59.52
498;BME280;39559;48.630;9.162;2022-07-23T11:02:32;97591.72;;;25.39;62.50
498;BME280;39559;48.630;9.162;2022-07-23T11:05:04;97596.53;;;25.70;64.81
498;BME280;39559;48.630;9.162;2022-07-23T11:07:30;97579.38;;;25.91;63.28
498;BME280;39559;48.630;9.162;2022-07-23T11:09:58;97583.94;;;26.07;61.09
498;BME280;39559;48.630;9.162;2022-07-23T11:17:30;97584.63;;;26.68;59.95
498;BME280;39559;48.630;9.162;2022-07-23T11:22:38;97601.41;;;26.60;61.23
498;BME280;39559;48.630;9.162;2022-07-23T11:26:00;97592.63;;;27.00;59.57
498;BME280;39559;48.630;9.162;2022-07-23T11:28:25;97580.63;;;26.88;56.16
498;BME280;39559;48.630;9.162;2022-07-23T11:30:52;97583.63;;;26.77;56.05
498;BME280;39559;48.630;9.162;2022-07-23T11:33:19;97600.59;;;26.68;58.66
498;BME280;39559;48.630;9.162;2022-07-23T11:35:47;97586.47;;;26.67;58.18
498;BME280;39559;48.630;9.162;2022-07-23T11:38:19;97584.81;;;26.74;54.87
498;BME280;39559;48.630;9.162;2022-07-23T11:40:53;97587.13;;;26.86;54.77
498;BME280;39559;48.630;9.162;2022-07-23T11:43:20;97589.78;;;26.86;56.93
498;BME280;39559;48.630;9.162;2022-07-23T11:45:49;97588.78;;;26.78;51.91
498;BME280;39559;48.630;9.162;2022-07-23T11:49:59;97586.13;;;26.62;55.86
498;BME280;39559;48.630;9.162;2022-07-23T11:52:27;97578.13;;;26.78;56.21
498;BME280;39559;48.630;9.162;2022-07-23T11:55:06;97578.47;;;26.92;55.46
498;BME280;39559;48.630;9.162;2022-07-23T11:57:34;97582.47;;;26.71;57.44
498;BME280;39559;48.630;9.162;2022-07-23T12:00:13;97588.84;;;26.36;57.88
498;BME280;39559;48.630;9.162;2022-07-23T12:02:53;97587.72;;;26.55;56.52
498;BME280;39559;48.630;9.162;2022-07-23T12:05:24;97583.22;;;26.55;58.32
498;BME280;39559;48.630;9.162;2022-07-23T12:07:52;97568.63;;;26.92;52.61
498;BME280;39559;48.630;9.162;2022-07-23T12:10:22;97566.78;;;27.42;56.71
498;BME280;39559;48.630;9.162;2022-07-23T12:13:56;97567.06;;;27.64;54.14
498;BME280;39559;48.630;9.162;2022-07-23T12:16:22;97563.47;;;27.32;53.77
498;BME280;39559;48.630;9.162;2022-07-23T12:18:48;97560.28;;;27.20;52.65
498;BME280;39559;48.630;9.162;2022-07-23T12:21:13;97561.41;;;27.50;52.74
498;BME280;39559;48.630;9.162;2022-07-23T12:23:39;97555.91;;;27.60;56.33
498;BME280;39559;48.630;9.162;2022-07-23T12:26:05;97554.97;;;27.84;52.44
498;BME280;39559;48.630;9.162;2022-07-23T12:28:33;97549.94;;;27.98;50.10
498;BME280;39559;48.630;9.162;2022-07-23T12:31:00;97550.88;;;28.13;50.16
498;BME280;39559;48.630;9.162;2022-07-23T12:33:28;97542.72;;;28.06;51.19
498;BME280;39559;48.630;9.162;2022-07-23T12:37:39;97546.75;;;28.02;47.85
498;BME280;39559;48.630;9.162;2022-07-23T12:45:23;97557.09;;;28.05;47.45
498;BME280;39559;48.630;9.162;2022-07-23T12:48:01;97555.53;;;28.42;49.43
498;BME280;39559;48.630;9.162;2022-07-23T12:55:43;97564.03;;;27.67;50.16
498;BME280;39559;48.630;9.162;2022-07-23T12:58:18;97569.97;;;26.72;54.43
498;BME280;39559;48.630;9.162;2022-07-23T13:01:40;97573.63;;;26.12;55.29
498;BME280;39559;48.630;9.162;2022-07-23T13:06:36;97571.03;;;25.85;54.60
498;BME280;39559;48.630;9.162;2022-07-23T13:09:05;97571.28;;;26.09;54.26
498;BME280;39559;48.630;9.162;2022-07-23T13:11:31;97569.31;;;26.11;58.80
498;BME280;39559;48.630;9.162;2022-07-23T13:13:57;97573.47;;;26.05;57.46
498;BME280;39559;48.630;9.162;2022-07-23T13:16:23;97577.16;;;25.78;53.71
498;BME280;39559;48.630;9.162;2022-07-23T13:18:49;97578.00;;;25.86;54.01
498;BME280;39559;48.630;9.162;2022-07-23T13:21:14;97585.00;;;26.30;58.68
498;BME280;39559;48.630;9.162;2022-07-23T13:25:25;97586.41;;;26.51;54.20
498;BME280;39559;48.630;9.162;2022-07-23T13:27:50;97586.56;;;26.49;55.20
498;BME280;39559;48.630;9.162;2022-07-23T13:30:16;97584.59;;;26.76;55.33
498;BME280;39559;48.630;9.162;2022-07-23T13:32:44;97585.66;;;26.32;54.92
498;BME280;39559;48.630;9.162;2022-07-23T13:35:10;97588.47;;;26.14;53.78
498;BME280;39559;48.630;9.162;2022-07-23T13:37:37;97580.94;;;26.01;54.52
498;BME280;39559;48.630;9.162;2022-07-23T13:40:03;97577.13;;;26.12;54.60
498;BME280;39559;48.630;9.162;2022-07-23T13:42:28;97587.97;;;26.11;58.18
498;BME280;39559;48.630;9.162;2022-07-23T13:44:54;97583.16;;;26.14;57.60
498;BME280;39559;48.630;9.162;2022-07-23T13:49:17;97578.66;;;26.23;56.61
498;BME280;39559;48.630;9.162;2022-07-23T13:51:43;97575.16;;;25.80;62.47
498;BME280;39559;48.630;9.162;2022-07-23T13:54:08;97570.50;;;25.82;60.50
498;BME280;39559;48.630;9.162;2022-07-23T13:56:34;97579.81;;;25.78;63.98
498;BME280;39559;48.630;9.162;2022-07-23T13:59:00;97577.09;;;25.70;57.50
498;BME280;39559;48.630;9.162;2022-07-23T14:01:25;97582.03;;;25.56;65.94
498;BME280;39559;48.630;9.162;2022-07-23T14:03:51;97584.16;;;25.53;57.66
498;BME280;39559;48.630;9.162;2022-07-23T14:06:16;97585.16;;;25.52;57.49
498;BME280;39559;48.630;9.162;2022-07-23T14:08:44;97584.81;;;25.28;56.59
498;BME280;39559;48.630;9.162;2022-07-23T14:13:10;97579.13;;;25.23;57.62
498;BME280;39559;48.630;9.162;2022-07-23T14:15:35;97579.22;;;25.14;57.08
498;BME280;39559;48.630;9.162;2022-07-23T14:18:02;97581.69;;;25.07;57.73
498;BME280;39559;48.630;9.162;2022-07-23T14:20:28;97585.06;;;25.17;59.26
498;BME280;39559;48.630;9.162;2022-07-23T14:22:53;97588.91;;;25.23;57.42
498;BME280;39559;48.630;9.162;2022-07-23T14:25:21;97592.06;;;25.44;56.91
498;BME280;39559;48.630;9.162;2022-07-23T14:27:46;97586.69;;;25.62;58.77
498;BME280;39559;48.630;9.162;2022-07-23T14:30:12;97588.91;;;25.67;55.35
498;BME280;39559;48.630;9.162;2022-07-23T14:32:40;97580.63;;;25.78;56.07
498;BME280;39559;48.630;9.162;2022-07-23T14:37:01;97582.84;;;26.26;55.43
498;BME280;39559;48.630;9.162;2022-07-23T14:39:27;97574.34;;;26.22;54.60
498;BME280;39559;48.630;9.162;2022-07-23T14:41:53;97572.69;;;26.29;54.67
498;BME280;39559;48.630;9.162;2022-07-23T14:44:19;97573.56;;;26.46;52.82
498;BME280;39559;48.630;9.162;2022-07-23T14:46:45;97565.28;;;26.74;52.97
498;BME280;39559;48.630;9.162;2022-07-23T14:49:10;97568.81;;;26.99;52.77
498;BME280;39559;48.630;9.162;2022-07-23T14:51:36;97562.81;;;27.22;52.61
498;BME280;39559;48.630;9.162;2022-07-23T14:54:03;97563.16;;;27.02;55.14
498;BME280;39559;48.630;9.162;2022-07-23T14:56:29;97568.97;;;27.22;55.34
498;BME280;39559;48.630;9.162;2022-07-23T15:00:54;97553.78;;;27.39;50.02